createdAt,value
2022-11-04T00:00:28.681Z,2.20
2022-11-04T00:02:58.134Z,2.60
2022-11-04T00:05:25.788Z,1.87
2022-11-04T00:08:11.352Z,1.80
2022-11-04T00:10:56.692Z,2.07
2022-11-04T00:13:24.704Z,1.57
2022-11-04T00:16:11.400Z,1.20
2022-11-04T00:18:39.609Z,1.30
2022-11-04T00:21:24.808Z,1.00
2022-11-04T00:24:09.916Z,3.00
2022-11-04T00:26:56.069Z,0.90
2022-11-04T00:29:23.756Z,1.20
2022-11-04T00:32:10.613Z,0.67
2022-11-04T00:34:38.251Z,0.60
2022-11-04T00:37:06.852Z,0.57
2022-11-04T00:39:34.514Z,0.90
2022-11-04T00:42:02.369Z,0.77
2022-11-04T00:44:30.110Z,0.73
2022-11-04T00:46:59.624Z,0.80
2022-11-04T00:49:27.342Z,1.27
2022-11-04T00:51:55.435Z,0.67
2022-11-04T00:54:23.084Z,0.73
2022-11-04T00:56:50.868Z,0.60
2022-11-04T00:59:18.536Z,0.87
2022-11-04T01:01:47.224Z,0.77
2022-11-04T01:04:16.462Z,0.50
2022-11-04T01:06:44.748Z,0.93
2022-11-04T01:09:13.985Z,0.30
2022-11-04T01:11:42.132Z,0.40
2022-11-04T01:14:09.971Z,0.60
2022-11-04T01:16:38.013Z,0.40
2022-11-04T01:19:05.918Z,0.80
2022-11-04T01:21:35.224Z,1.13
2022-11-04T01:24:03.476Z,0.70
2022-11-04T01:26:32.001Z,0.50
2022-11-04T01:29:00.112Z,0.43
2022-11-04T01:31:29.942Z,0.40
2022-11-04T01:33:59.006Z,0.40
2022-11-04T01:36:28.327Z,0.40
2022-11-04T01:38:57.653Z,0.30
2022-11-04T01:41:28.636Z,0.53
2022-11-04T01:43:58.263Z,0.30
2022-11-04T01:46:32.000Z,1.20
2022-11-04T01:49:04.601Z,0.53
2022-11-04T01:51:36.901Z,0.10
2022-11-04T01:54:07.310Z,0.23
2022-11-04T01:56:35.751Z,0.30
2022-11-04T01:59:09.338Z,0.10
2022-11-04T02:01:38.233Z,0.30
2022-11-04T02:04:20.644Z,0.20
2022-11-04T02:06:50.160Z,0.13
2022-11-04T02:09:20.937Z,0.50
2022-11-04T02:12:06.700Z,0.20
2022-11-04T02:14:35.819Z,0.20
2022-11-04T02:17:14.022Z,0.47
2022-11-04T02:20:03.508Z,0.40
2022-11-04T02:22:51.139Z,0.20
2022-11-04T02:25:35.868Z,0.17
2022-11-04T02:28:33.108Z,0.20
2022-11-04T02:31:12.227Z,0.63
2022-11-04T02:33:48.033Z,0.20
2022-11-04T02:36:24.090Z,0.40
2022-11-04T02:38:56.258Z,0.20
2022-11-04T02:41:35.540Z,0.10
2022-11-04T02:44:12.224Z,0.20
2022-11-04T02:46:49.863Z,0.10
2022-11-04T02:49:23.196Z,0.13
2022-11-04T02:51:54.420Z,0.20
2022-11-04T02:54:27.095Z,0.10
2022-11-04T02:56:58.075Z,0.13
2022-11-04T02:59:32.741Z,0.10
2022-11-04T03:02:06.904Z,0.47
2022-11-04T03:04:39.958Z,0.07
2022-11-04T03:09:48.805Z,0.10
2022-11-04T03:12:20.517Z,0.20
2022-11-04T03:14:53.048Z,0.10
2022-11-04T03:17:28.659Z,0.10
2022-11-04T03:19:59.524Z,0.17
2022-11-04T03:22:30.813Z,0.03
2022-11-04T03:24:59.136Z,0.30
2022-11-04T03:27:35.493Z,0.37
2022-11-04T03:30:08.091Z,0.40
2022-11-04T03:32:45.761Z,0.20
2022-11-04T03:35:15.645Z,0.10
2022-11-04T03:37:44.509Z,0.10
2022-11-04T03:40:14.076Z,0.03
2022-11-04T03:42:47.264Z,0.10
2022-11-04T03:45:16.759Z,0.10
2022-11-04T03:47:46.617Z,0.10
2022-11-04T03:50:21.328Z,0.20
2022-11-04T03:52:49.288Z,0.20
2022-11-04T03:55:17.148Z,0.30
2022-11-04T03:57:53.988Z,0.10
2022-11-04T04:00:23.364Z,0.10
2022-11-04T04:03:03.527Z,0.10
2022-11-04T04:05:32.820Z,0.10
2022-11-04T04:08:14.394Z,0.23
2022-11-04T04:10:49.982Z,0.40
2022-11-04T04:13:26.101Z,0.20
2022-11-04T04:15:59.988Z,0.23
2022-11-04T04:18:35.559Z,0.17
2022-11-04T04:21:08.312Z,0.30
2022-11-04T04:23:55.584Z,0.10
2022-11-04T04:26:43.985Z,0.20
2022-11-04T04:29:12.567Z,0.10
2022-11-04T04:31:50.941Z,0.37
2022-11-04T04:34:22.604Z,0.10
2022-11-04T04:36:55.589Z,0.00
2022-11-04T04:39:46.131Z,0.10
2022-11-04T04:42:31.916Z,0.10
2022-11-04T04:45:03.211Z,0.10
2022-11-04T04:47:44.406Z,0.10
2022-11-04T04:50:16.629Z,0.10
2022-11-04T04:52:48.424Z,0.10
2022-11-04T04:55:16.734Z,0.23
2022-11-04T04:57:44.474Z,0.10
2022-11-04T05:00:15.551Z,0.20
2022-11-04T05:02:44.492Z,0.10
2022-11-04T05:07:46.992Z,0.40
2022-11-04T05:10:17.087Z,0.10
2022-11-04T05:13:03.348Z,0.00
2022-11-04T05:15:31.697Z,0.00
2022-11-04T05:18:01.073Z,0.00
2022-11-04T05:20:30.360Z,0.00
2022-11-04T05:22:58.148Z,0.00
2022-11-04T05:25:25.848Z,0.07
2022-11-04T05:27:54.081Z,0.30
2022-11-04T05:30:21.977Z,0.03
2022-11-04T05:32:49.616Z,0.10
2022-11-04T05:35:17.459Z,0.00
2022-11-04T05:37:46.805Z,0.10
2022-11-04T05:40:15.474Z,0.10
2022-11-04T05:42:43.662Z,0.20
2022-11-04T05:45:11.798Z,0.00
2022-11-04T05:47:39.454Z,0.10
2022-11-04T05:50:07.980Z,0.27
2022-11-04T05:52:35.638Z,0.00
2022-11-04T05:55:04.946Z,0.17
2022-11-04T05:57:32.629Z,0.00
2022-11-04T06:00:00.257Z,0.00
2022-11-04T06:02:27.993Z,0.00
2022-11-04T06:04:55.692Z,0.17
2022-11-04T06:07:23.336Z,0.30
2022-11-04T06:09:50.997Z,0.20
2022-11-04T06:12:20.213Z,0.20
2022-11-04T06:14:47.816Z,0.30
2022-11-04T06:17:17.217Z,0.10
2022-11-04T06:19:45.107Z,0.80
2022-11-04T06:22:15.006Z,0.43
2022-11-04T06:24:43.035Z,0.50
2022-11-04T06:27:11.855Z,0.10
2022-11-04T06:29:41.678Z,0.60
2022-11-04T06:32:10.766Z,0.10
2022-11-04T06:34:39.034Z,0.20
2022-11-04T06:37:06.848Z,0.10
2022-11-04T06:39:34.640Z,0.10
2022-11-04T06:42:03.227Z,0.10
2022-11-04T06:44:31.077Z,0.10
2022-11-04T06:47:01.183Z,0.37
2022-11-04T06:49:28.823Z,0.30
2022-11-04T06:51:57.239Z,0.10
2022-11-04T06:54:24.877Z,0.00
2022-11-04T06:56:52.561Z,0.20
2022-11-04T06:59:21.882Z,0.27
2022-11-04T07:01:51.045Z,0.30
2022-11-04T07:04:20.343Z,0.40
2022-11-04T07:06:48.029Z,2.10
2022-11-04T07:09:16.711Z,2.20
2022-11-04T07:11:45.868Z,0.70
2022-11-04T07:14:14.269Z,0.47
2022-11-04T07:16:42.017Z,0.10
2022-11-04T07:19:09.836Z,0.20
2022-11-04T07:21:39.182Z,0.17
2022-11-04T07:24:07.706Z,0.40
2022-11-04T07:26:35.839Z,0.10
2022-11-04T07:29:03.482Z,0.50
2022-11-04T07:31:31.917Z,0.20
2022-11-04T07:33:59.884Z,0.30
2022-11-04T07:36:27.974Z,0.20
2022-11-04T07:38:56.970Z,1.90
2022-11-04T07:41:24.640Z,2.57
2022-11-04T07:43:53.460Z,0.97
2022-11-04T07:46:22.716Z,1.03
2022-11-04T07:48:50.352Z,4.53
2022-11-04T07:51:20.858Z,0.90
2022-11-04T07:53:48.676Z,0.20
2022-11-04T07:56:19.244Z,0.27
2022-11-04T07:58:46.881Z,0.30
2022-11-04T08:01:18.054Z,0.30
2022-11-04T08:03:46.029Z,0.30
2022-11-04T08:06:15.862Z,0.47
2022-11-04T08:08:44.193Z,0.17
2022-11-04T08:11:17.338Z,0.57
2022-11-04T08:13:47.987Z,0.30
2022-11-04T08:16:17.779Z,0.30
2022-11-04T08:18:48.299Z,1.47
2022-11-04T08:21:16.949Z,0.33
2022-11-04T08:23:46.066Z,0.77
2022-11-04T08:26:16.669Z,0.83
2022-11-04T08:28:44.363Z,0.20
2022-11-04T08:31:16.333Z,0.50
2022-11-04T08:33:44.541Z,0.70
2022-11-04T08:36:15.773Z,0.53
2022-11-04T08:38:43.595Z,0.97
2022-11-04T08:41:13.074Z,0.30
2022-11-04T08:43:40.728Z,0.80
2022-11-04T08:46:11.791Z,0.50
2022-11-04T08:48:44.051Z,0.50
2022-11-04T08:51:17.331Z,0.60
2022-11-04T08:53:45.290Z,0.50
2022-11-04T08:56:15.752Z,0.40
2022-11-04T08:58:43.523Z,0.40
2022-11-04T09:01:13.311Z,0.47
2022-11-04T09:03:43.092Z,0.40
2022-11-04T09:06:16.158Z,0.70
2022-11-04T09:08:44.286Z,0.30
2022-11-04T09:11:14.691Z,0.20
2022-11-04T09:13:42.770Z,0.20
2022-11-04T09:16:12.640Z,0.50
2022-11-04T09:18:42.132Z,0.50
2022-11-04T09:21:11.656Z,0.43
2022-11-04T09:23:39.734Z,1.13
2022-11-04T09:26:10.935Z,0.50
2022-11-04T09:28:38.858Z,0.97
2022-11-04T09:31:07.938Z,0.40
2022-11-04T09:33:35.631Z,0.30
2022-11-04T09:36:05.669Z,0.30
2022-11-04T09:38:33.558Z,0.60
2022-11-04T09:41:01.981Z,0.23
2022-11-04T09:43:42.468Z,0.30
2022-11-04T09:46:13.013Z,0.20
2022-11-04T09:48:45.675Z,0.40
2022-11-04T09:51:39.860Z,0.33
2022-11-04T09:54:13.463Z,0.47
2022-11-04T09:56:46.121Z,0.97
2022-11-04T09:59:17.792Z,1.17
2022-11-04T10:01:57.322Z,1.20
2022-11-04T10:04:30.933Z,0.97
2022-11-04T10:07:14.452Z,1.23
2022-11-04T10:09:52.271Z,0.70
2022-11-04T10:12:36.834Z,0.73
2022-11-04T10:15:29.775Z,0.70
2022-11-04T10:18:12.212Z,0.60
2022-11-04T10:20:53.689Z,0.67
2022-11-04T10:23:28.111Z,0.67
2022-11-04T10:26:03.171Z,0.60
2022-11-04T10:28:37.050Z,3.53
2022-11-04T10:31:06.301Z,1.17
2022-11-04T10:33:36.449Z,0.53
2022-11-04T10:36:07.862Z,0.60
2022-11-04T10:38:40.336Z,1.00
2022-11-04T10:41:21.305Z,1.60
2022-11-04T10:43:50.252Z,1.60
2022-11-04T10:46:35.633Z,0.60
2022-11-04T10:49:27.534Z,0.40
2022-11-04T10:51:57.900Z,0.50
2022-11-04T10:54:28.596Z,0.57
2022-11-04T10:56:57.518Z,0.40
2022-11-04T10:59:28.709Z,0.43
2022-11-04T11:01:58.238Z,0.50
2022-11-04T11:04:29.187Z,0.93
2022-11-04T11:06:58.927Z,0.30
2022-11-04T11:09:29.944Z,0.20
2022-11-04T11:12:01.026Z,0.27
2022-11-04T11:14:37.752Z,0.20
2022-11-04T11:17:21.115Z,0.33
2022-11-04T11:19:54.553Z,0.30
2022-11-04T11:22:32.644Z,0.30
2022-11-04T11:25:24.395Z,0.60
2022-11-04T11:27:55.020Z,0.83
2022-11-04T11:30:31.373Z,0.30
2022-11-04T11:33:04.180Z,0.40
2022-11-04T11:35:41.461Z,0.30
2022-11-04T11:38:19.899Z,0.43
2022-11-04T11:41:22.913Z,0.30
2022-11-04T11:43:44.784Z,0.70
2022-11-04T11:46:13.973Z,0.40
2022-11-04T11:48:43.315Z,0.40
2022-11-04T11:51:14.584Z,0.20
2022-11-04T11:53:58.501Z,0.47
2022-11-04T11:57:06.881Z,0.30
2022-11-04T12:02:32.987Z,0.30
2022-11-04T12:10:53.054Z,0.50
2022-11-04T12:13:27.780Z,1.23
2022-11-04T12:16:11.205Z,0.63
2022-11-04T12:18:51.330Z,0.40
2022-11-04T12:21:24.185Z,0.30
2022-11-04T12:23:56.211Z,0.50
2022-11-04T12:26:35.361Z,0.30
2022-11-04T12:29:31.813Z,0.63
2022-11-04T12:32:12.971Z,0.47
2022-11-04T12:34:54.675Z,0.40
2022-11-04T12:37:32.526Z,0.27
2022-11-04T12:40:22.472Z,0.50
2022-11-04T12:43:07.466Z,0.30
2022-11-04T12:45:47.379Z,0.87
2022-11-04T12:48:32.274Z,0.97
2022-11-04T12:51:07.925Z,0.60
2022-11-04T12:54:04.339Z,1.07
2022-11-04T12:56:38.820Z,0.70
2022-11-04T12:59:26.380Z,0.60
2022-11-04T13:01:59.915Z,0.30
2022-11-04T13:04:33.897Z,0.70
2022-11-04T13:07:06.565Z,0.30
2022-11-04T13:09:43.175Z,0.40
2022-11-04T13:12:14.385Z,1.43
2022-11-04T13:14:48.330Z,0.40
2022-11-04T13:17:23.057Z,0.30
2022-11-04T13:19:52.803Z,0.20
2022-11-04T13:22:24.812Z,0.27
2022-11-04T13:24:56.685Z,0.40
2022-11-04T13:27:27.877Z,0.30
2022-11-04T13:30:06.153Z,0.40
2022-11-04T13:32:41.997Z,0.50
2022-11-04T13:35:19.160Z,0.70
2022-11-04T13:37:56.621Z,1.37
2022-11-04T13:40:29.336Z,0.30
2022-11-04T13:43:32.749Z,0.20
2022-11-04T13:46:00.904Z,0.53
2022-11-04T13:48:32.810Z,0.43
2022-11-04T13:51:03.647Z,0.43
2022-11-04T13:53:46.656Z,4.37
2022-11-04T13:56:34.563Z,1.83
2022-11-04T13:59:06.912Z,2.33
2022-11-04T14:01:36.394Z,0.53
2022-11-04T14:04:20.901Z,0.60
2022-11-04T14:06:54.729Z,0.40
2022-11-04T14:09:49.624Z,0.20
2022-11-04T14:12:34.213Z,1.03
2022-11-04T14:15:11.471Z,0.50
2022-11-04T14:18:01.895Z,0.40
2022-11-04T14:20:36.894Z,0.80
2022-11-04T14:23:09.175Z,1.20
2022-11-04T14:25:39.917Z,1.90
2022-11-04T14:28:26.073Z,2.50
2022-11-04T14:30:55.745Z,0.70
2022-11-04T14:33:32.870Z,0.80
2022-11-04T14:36:43.317Z,0.97
2022-11-04T14:39:30.342Z,0.80
2022-11-04T14:42:01.493Z,3.30
2022-11-04T14:44:36.141Z,1.47
2022-11-04T14:47:17.348Z,0.90
2022-11-04T14:49:48.219Z,1.20
2022-11-04T14:52:27.213Z,0.70
2022-11-04T14:54:58.814Z,0.63
2022-11-04T14:57:30.161Z,0.87
2022-11-04T14:59:58.106Z,0.43
2022-11-04T15:02:29.739Z,0.93
2022-11-04T15:04:59.992Z,0.50
2022-11-04T15:07:36.335Z,0.90
2022-11-04T15:10:21.594Z,0.80
2022-11-04T15:12:53.043Z,0.37
2022-11-04T15:15:30.378Z,0.77
2022-11-04T15:18:01.663Z,0.73
2022-11-04T15:20:31.493Z,1.13
2022-11-04T15:23:02.952Z,1.07
2022-11-04T15:25:32.708Z,1.30
2022-11-04T15:28:01.575Z,0.70
2022-11-04T15:30:31.301Z,8.27
2022-11-04T15:33:02.870Z,2.47
2022-11-04T15:35:33.139Z,0.80
2022-11-04T15:38:03.746Z,0.83
2022-11-04T15:40:40.365Z,0.67
2022-11-04T15:43:09.488Z,0.73
2022-11-04T15:45:40.036Z,0.90
2022-11-04T15:48:31.448Z,1.03
2022-11-04T15:51:10.604Z,1.13
2022-11-04T15:53:49.718Z,0.70
2022-11-04T15:56:21.962Z,1.37
2022-11-04T15:58:51.498Z,0.87
2022-11-04T16:01:20.786Z,0.53
2022-11-04T16:03:54.516Z,2.10
2022-11-04T16:06:34.782Z,1.67
2022-11-04T16:09:05.877Z,2.17
2022-11-04T16:11:35.207Z,3.33
2022-11-04T16:14:22.635Z,6.33
2022-11-04T16:16:52.070Z,5.73
2022-11-04T16:19:23.504Z,5.57
2022-11-04T16:22:00.348Z,2.87
2022-11-04T16:24:30.749Z,2.70
2022-11-04T16:27:00.166Z,2.53
2022-11-04T16:29:30.481Z,1.43
2022-11-04T16:32:16.713Z,1.70
2022-11-04T16:34:45.249Z,1.40
2022-11-04T16:37:13.491Z,1.83
2022-11-04T16:39:42.116Z,2.53
2022-11-04T16:42:13.690Z,1.73
2022-11-04T16:44:47.240Z,3.27
2022-11-04T16:47:14.869Z,3.37
2022-11-04T16:49:43.084Z,2.87
2022-11-04T16:52:14.824Z,4.50
2022-11-04T16:54:42.577Z,2.10
2022-11-04T16:57:14.731Z,1.90
2022-11-04T16:59:42.466Z,3.10
2022-11-04T17:02:22.176Z,3.10
2022-11-04T17:04:50.005Z,2.43
2022-11-04T17:07:17.686Z,3.53
2022-11-04T17:09:45.996Z,2.60
2022-11-04T17:12:15.035Z,2.63
2022-11-04T17:14:43.256Z,2.53
2022-11-04T17:17:12.084Z,2.60
2022-11-04T17:19:40.345Z,1.80
2022-11-04T17:22:09.159Z,1.30
2022-11-04T17:24:37.512Z,2.17
2022-11-04T17:27:06.420Z,2.37
2022-11-04T17:29:37.685Z,1.03
2022-11-04T17:32:05.608Z,1.77
2022-11-04T17:34:33.785Z,1.70
2022-11-04T17:37:02.321Z,1.47
2022-11-04T17:39:30.507Z,2.07
2022-11-04T17:42:15.576Z,1.13
2022-11-04T17:44:45.129Z,1.33
2022-11-04T17:47:12.783Z,0.80
2022-11-04T17:49:41.447Z,1.90
2022-11-04T17:52:09.637Z,2.57
2022-11-04T17:54:37.759Z,4.67
2022-11-04T17:57:05.403Z,5.27
2022-11-04T17:59:36.765Z,5.67
2022-11-04T18:02:06.303Z,5.03
2022-11-04T18:04:34.130Z,4.47
2022-11-04T18:07:03.302Z,4.63
2022-11-04T18:09:32.648Z,2.17
2022-11-04T18:12:18.197Z,3.50
2022-11-04T18:14:46.245Z,3.97
2022-11-04T18:17:15.264Z,5.20
2022-11-04T18:19:42.924Z,7.60
2022-11-04T18:22:10.635Z,8.80
2022-11-04T18:24:38.367Z,11.70
2022-11-04T18:27:06.381Z,10.53
2022-11-04T18:29:34.512Z,10.20
2022-11-04T18:32:02.253Z,8.10
2022-11-04T18:34:31.799Z,9.10
2022-11-04T18:37:00.236Z,7.20
2022-11-04T18:39:28.235Z,6.70
2022-11-04T18:41:55.901Z,6.50
2022-11-04T18:44:24.376Z,6.03
2022-11-04T18:46:52.056Z,7.97
2022-11-04T18:49:20.622Z,6.70
2022-11-04T18:51:49.723Z,7.00
2022-11-04T18:54:17.629Z,5.93
2022-11-04T18:56:45.652Z,5.00
2022-11-04T18:59:15.522Z,4.40
2022-11-04T19:01:43.994Z,4.90
2022-11-04T19:04:12.991Z,4.87
2022-11-04T19:06:42.925Z,4.87
2022-11-04T19:12:20.796Z,3.03
2022-11-04T19:14:49.178Z,2.80
2022-11-04T19:17:17.505Z,3.43
2022-11-04T19:19:45.201Z,2.83
2022-11-04T19:22:14.037Z,2.30
2022-11-04T19:24:43.044Z,2.03
2022-11-04T19:27:11.299Z,1.30
2022-11-04T19:29:39.496Z,2.57
2022-11-04T19:32:13.770Z,1.77
2022-11-04T19:34:42.173Z,2.03
2022-11-04T19:37:10.575Z,2.43
2022-11-04T19:39:38.268Z,2.70
2022-11-04T19:42:25.752Z,1.43
2022-11-04T19:44:53.493Z,2.57
2022-11-04T19:47:21.513Z,2.00
2022-11-04T19:49:49.228Z,1.07
2022-11-04T19:52:17.540Z,1.73
2022-11-04T19:54:45.212Z,1.83
2022-11-04T19:57:15.006Z,1.20
2022-11-04T19:59:42.740Z,2.70
2022-11-04T20:02:11.395Z,3.20
2022-11-04T20:04:39.249Z,4.20
2022-11-04T20:07:07.321Z,5.53
2022-11-04T20:09:34.963Z,4.57
2022-11-04T20:12:20.792Z,5.37
2022-11-04T20:14:49.817Z,5.40
2022-11-04T20:17:18.354Z,5.13
2022-11-04T20:19:46.028Z,3.90
2022-11-04T20:22:14.172Z,4.60
2022-11-04T20:24:41.862Z,4.53
2022-11-04T20:27:15.247Z,3.47
2022-11-04T20:29:43.580Z,3.07
2022-11-04T20:32:13.367Z,3.30
2022-11-04T20:34:41.011Z,3.80
2022-11-04T20:37:10.051Z,3.63
2022-11-04T20:39:37.802Z,2.73
2022-11-04T20:42:05.896Z,2.93
2022-11-04T20:44:33.701Z,2.70
2022-11-04T20:47:02.063Z,2.77
2022-11-04T20:49:31.520Z,3.60
2022-11-04T20:51:59.852Z,2.20
2022-11-04T20:54:27.576Z,2.70
2022-11-04T20:56:56.046Z,3.40
2022-11-04T20:59:23.728Z,2.60
2022-11-04T21:01:52.310Z,3.60
2022-11-04T21:04:21.906Z,3.43
2022-11-04T21:06:52.714Z,3.20
2022-11-04T21:09:21.893Z,4.70
2022-11-04T21:11:51.269Z,2.93
2022-11-04T21:14:20.195Z,3.40
2022-11-04T21:16:48.963Z,3.40
2022-11-04T21:19:17.306Z,3.57
2022-11-04T21:21:46.882Z,3.50
2022-11-04T21:24:17.001Z,3.10
2022-11-04T21:26:45.604Z,2.73
2022-11-04T21:29:16.061Z,2.97
2022-11-04T21:31:44.815Z,3.73
2022-11-04T21:34:13.104Z,4.37
2022-11-04T21:36:41.577Z,4.40
2022-11-04T21:39:10.970Z,3.73
2022-11-04T21:41:40.361Z,3.67
2022-11-04T21:44:09.501Z,4.63
2022-11-04T21:46:38.400Z,5.80
2022-11-04T21:49:06.170Z,8.00
2022-11-04T21:51:35.574Z,7.87
2022-11-04T21:54:07.350Z,5.07
2022-11-04T21:56:35.959Z,4.80
2022-11-04T21:59:05.705Z,4.93
2022-11-04T22:01:33.656Z,4.10
2022-11-04T22:04:02.939Z,4.43
2022-11-04T22:06:34.556Z,4.40
2022-11-04T22:09:04.518Z,4.03
2022-11-04T22:11:33.878Z,5.87
2022-11-04T22:14:03.799Z,3.80
2022-11-04T22:16:35.041Z,3.43
2022-11-04T22:19:05.204Z,4.50
2022-11-04T22:21:33.933Z,4.37
2022-11-04T22:24:02.179Z,3.73
2022-11-04T22:26:32.468Z,3.73
2022-11-04T22:29:00.844Z,2.83
2022-11-04T22:31:31.142Z,5.27
2022-11-04T22:34:01.013Z,4.00
2022-11-04T22:36:29.272Z,4.83
2022-11-04T22:38:57.377Z,4.13
2022-11-04T22:41:27.133Z,3.00
2022-11-04T22:43:56.071Z,3.33
2022-11-04T22:46:25.633Z,3.73
2022-11-04T22:48:53.477Z,4.80
2022-11-04T22:51:23.510Z,4.23
2022-11-04T22:53:56.720Z,4.67
2022-11-04T22:56:27.001Z,4.00
2022-11-04T22:58:54.887Z,3.73
2022-11-04T23:01:23.166Z,4.23
2022-11-04T23:03:51.812Z,5.00
2022-11-04T23:06:22.172Z,4.10
2022-11-04T23:08:59.594Z,3.80
2022-11-04T23:11:47.031Z,3.63
2022-11-04T23:14:33.656Z,3.50
2022-11-04T23:17:19.406Z,3.07
2022-11-04T23:19:47.127Z,4.47
2022-11-04T23:22:32.501Z,4.90
2022-11-04T23:25:09.261Z,3.97
2022-11-04T23:27:57.492Z,3.77
2022-11-04T23:30:26.315Z,4.73
2022-11-04T23:32:55.631Z,3.50
2022-11-04T23:35:43.088Z,4.33
2022-11-04T23:38:11.119Z,2.97
2022-11-04T23:40:40.333Z,3.90
2022-11-04T23:43:08.376Z,3.10
2022-11-04T23:45:53.876Z,3.13
2022-11-04T23:48:39.640Z,3.57
2022-11-04T23:51:25.131Z,3.10
2022-11-04T23:54:10.378Z,3.60
2022-11-04T23:56:56.822Z,3.30
2022-11-04T23:59:42.037Z,4.73
